createdAt,value
2022-08-26T00:02:54.351Z,60.72
2022-08-26T00:07:57.208Z,60.51
2022-08-26T00:12:59.521Z,59.96
2022-08-26T00:18:01.858Z,59.77
2022-08-26T00:23:04.926Z,60.08
2022-08-26T00:28:07.870Z,60.86
2022-08-26T00:33:13.518Z,61.48
2022-08-26T00:38:15.891Z,60.73
2022-08-26T00:43:18.846Z,59.74
2022-08-26T00:48:24.245Z,59.54
2022-08-26T00:53:30.394Z,59.79
2022-08-26T00:58:36.689Z,65.07
2022-08-26T01:03:40.158Z,64.47
2022-08-26T01:08:42.566Z,63.05
2022-08-26T01:13:46.370Z,62.50
2022-08-26T01:18:48.777Z,61.90
2022-08-26T01:23:51.689Z,61.22
2022-08-26T01:29:01.209Z,60.74
2022-08-26T01:34:03.481Z,60.22
2022-08-26T01:39:07.230Z,60.01
2022-08-26T01:44:13.994Z,58.97
2022-08-26T01:49:16.360Z,61.18
2022-08-26T01:54:20.534Z,65.80
2022-08-26T01:59:25.510Z,63.23
2022-08-26T02:04:32.041Z,61.87
2022-08-26T02:09:41.093Z,60.65
2022-08-26T02:14:49.958Z,59.77
2022-08-26T02:19:53.674Z,59.96
2022-08-26T02:24:57.633Z,60.34
2022-08-26T02:30:02.599Z,60.49
2022-08-26T02:35:05.269Z,60.17
2022-08-26T02:40:08.902Z,60.23
2022-08-26T02:45:11.292Z,61.18
2022-08-26T02:50:14.563Z,61.56
2022-08-26T02:55:19.083Z,61.24
2022-08-26T03:00:21.585Z,61.03
2022-08-26T03:05:26.370Z,60.72
2022-08-26T03:10:29.208Z,60.18
2022-08-26T03:15:32.264Z,60.12
2022-08-26T03:20:34.971Z,60.15
2022-08-26T03:25:37.558Z,60.81
2022-08-26T03:30:44.936Z,61.61
2022-08-26T03:35:50.762Z,62.01
2022-08-26T03:40:53.274Z,61.72
2022-08-26T03:45:55.558Z,61.65
2022-08-26T03:50:58.700Z,61.67
2022-08-26T03:56:01.175Z,61.72
2022-08-26T04:01:03.991Z,61.95
2022-08-26T04:06:06.912Z,61.46
2022-08-26T04:11:09.240Z,60.88
2022-08-26T04:16:13.234Z,60.28
2022-08-26T04:21:16.607Z,59.93
2022-08-26T04:26:20.401Z,59.57
2022-08-26T04:31:22.772Z,59.04
2022-08-26T04:36:25.877Z,63.98
2022-08-26T04:41:28.597Z,64.76
2022-08-26T04:46:34.558Z,62.61
2022-08-26T04:51:37.607Z,61.48
2022-08-26T04:56:42.039Z,60.46
2022-08-26T05:01:46.783Z,59.91
2022-08-26T05:06:50.890Z,59.49
2022-08-26T05:11:54.490Z,57.55
2022-08-26T05:16:56.965Z,61.45
2022-08-26T05:21:59.521Z,66.94
2022-08-26T05:27:02.980Z,63.47
2022-08-26T05:32:11.247Z,61.65
2022-08-26T05:37:13.715Z,60.18
2022-08-26T05:42:16.082Z,58.08
2022-08-26T05:47:18.745Z,61.46
2022-08-26T05:52:21.844Z,63.79
2022-08-26T05:57:29.719Z,58.54
2022-08-26T06:02:32.094Z,57.38
2022-08-26T06:07:37.478Z,59.80
2022-08-26T06:12:42.666Z,60.85
2022-08-26T06:17:46.686Z,64.20
2022-08-26T06:22:52.152Z,58.49
2022-08-26T06:27:54.663Z,57.89
2022-08-26T06:32:57.065Z,59.32
2022-08-26T06:38:00.219Z,62.33
2022-08-26T06:43:02.838Z,61.70
2022-08-26T06:48:06.545Z,58.09
2022-08-26T06:53:10.081Z,60.93
2022-08-26T06:58:13.939Z,57.96
2022-08-26T07:03:16.267Z,57.91
2022-08-26T07:08:18.805Z,58.39
2022-08-26T07:13:30.524Z,62.19
2022-08-26T07:18:34.550Z,57.89
2022-08-26T07:23:37.353Z,55.05
2022-08-26T07:28:44.031Z,56.76
2022-08-26T07:33:46.391Z,58.31
2022-08-26T07:38:49.066Z,58.59
2022-08-26T07:43:52.023Z,56.22
2022-08-26T07:48:54.422Z,57.84
2022-08-26T07:53:58.316Z,59.10
2022-08-26T07:59:00.683Z,55.97
2022-08-26T08:04:04.531Z,55.92
2022-08-26T08:09:06.933Z,57.89
2022-08-26T08:14:11.797Z,55.98
2022-08-26T08:19:15.091Z,56.18
2022-08-26T08:24:17.393Z,58.37
2022-08-26T08:29:20.024Z,54.94
2022-08-26T08:34:22.605Z,53.08
2022-08-26T08:39:26.193Z,54.18
2022-08-26T08:44:28.614Z,54.24
2022-08-26T08:49:32.213Z,55.58
2022-08-26T08:54:34.620Z,54.09
2022-08-26T08:59:58.825Z,53.95
2022-08-26T09:05:02.937Z,54.11
2022-08-26T09:10:17.252Z,51.59
2022-08-26T09:15:24.634Z,50.84
2022-08-26T09:20:32.712Z,55.92
2022-08-26T09:25:44.605Z,53.70
2022-08-26T09:30:58.343Z,50.50
2022-08-26T09:36:23.013Z,49.11
2022-08-26T09:41:31.701Z,49.74
2022-08-26T09:46:34.509Z,48.64
2022-08-26T09:51:37.427Z,48.90
2022-08-26T09:56:39.958Z,48.07
2022-08-26T10:01:43.377Z,45.05
2022-08-26T10:06:49.120Z,43.77
2022-08-26T10:11:55.532Z,45.84
2022-08-26T10:16:59.711Z,44.90
2022-08-26T10:22:18.232Z,42.43
2022-08-26T10:27:20.662Z,41.48
2022-08-26T10:32:25.958Z,41.76
2022-08-26T10:37:34.795Z,41.79
2022-08-26T10:42:42.493Z,39.93
2022-08-26T10:47:48.531Z,45.77
2022-08-26T10:52:52.629Z,45.13
2022-08-26T10:57:59.269Z,40.87
2022-08-26T11:03:22.633Z,43.52
2022-08-26T11:08:28.401Z,41.07
2022-08-26T11:13:33.651Z,40.51
2022-08-26T11:18:37.966Z,39.95
2022-08-26T11:23:50.268Z,43.42
2022-08-26T11:28:55.906Z,40.23
2022-08-26T11:33:59.786Z,40.53
2022-08-26T11:39:04.093Z,43.13
2022-08-26T11:44:09.379Z,45.05
2022-08-26T11:49:12.843Z,45.44
2022-08-26T11:54:17.515Z,42.69
2022-08-26T12:04:41.001Z,41.97
2022-08-26T12:09:46.321Z,42.83
2022-08-26T12:14:48.893Z,42.23
2022-08-26T12:19:51.195Z,40.31
2022-08-26T12:24:56.771Z,38.46
2022-08-26T12:30:02.567Z,36.96
2022-08-26T12:35:08.769Z,39.16
2022-08-26T12:40:14.134Z,39.30
2022-08-26T12:45:27.721Z,36.61
2022-08-26T12:50:32.455Z,35.39
2022-08-26T12:55:35.901Z,39.84
2022-08-26T13:00:40.660Z,37.49
2022-08-26T13:05:44.298Z,39.74
2022-08-26T13:10:47.497Z,36.73
2022-08-26T13:15:50.294Z,35.84
2022-08-26T13:20:52.718Z,36.46
2022-08-26T13:25:55.072Z,36.35
2022-08-26T13:30:58.308Z,39.15
2022-08-26T13:36:00.754Z,36.01
2022-08-26T13:41:03.464Z,35.23
2022-08-26T13:46:05.881Z,35.66
2022-08-26T13:51:08.956Z,33.89
2022-08-26T13:56:11.667Z,34.11
2022-08-26T14:01:15.522Z,29.47
2022-08-26T14:06:18.635Z,34.83
2022-08-26T14:11:21.364Z,33.67
2022-08-26T14:16:27.011Z,31.78
2022-08-26T14:21:30.975Z,33.38
2022-08-26T14:26:34.191Z,34.18
2022-08-26T14:31:37.732Z,36.26
2022-08-26T14:36:40.159Z,37.11
2022-08-26T14:41:45.148Z,36.39
2022-08-26T14:46:56.788Z,37.25
2022-08-26T14:51:59.604Z,36.78
2022-08-26T14:57:03.674Z,35.22
2022-08-26T15:02:07.336Z,33.44
2022-08-26T15:07:09.842Z,32.06
2022-08-26T15:12:16.177Z,29.72
2022-08-26T15:17:18.513Z,28.62
2022-08-26T15:22:21.192Z,27.18
2022-08-26T15:27:23.776Z,26.27
2022-08-26T15:32:26.135Z,27.27
2022-08-26T15:37:28.477Z,25.46
2022-08-26T15:42:30.845Z,25.69
2022-08-26T15:47:33.633Z,24.73
2022-08-26T15:52:56.143Z,25.08
2022-08-26T15:57:58.496Z,25.03
2022-08-26T16:03:00.875Z,24.29
2022-08-26T16:08:06.082Z,24.86
2022-08-26T16:13:10.445Z,24.80
2022-08-26T16:18:15.460Z,25.43
2022-08-26T16:23:18.724Z,26.26
2022-08-26T16:28:26.239Z,28.52
2022-08-26T16:33:29.853Z,29.73
2022-08-26T16:38:32.466Z,31.26
2022-08-26T16:43:34.884Z,33.80
2022-08-26T16:48:37.223Z,35.67
2022-08-26T16:53:39.682Z,37.63
2022-08-26T16:58:42.194Z,39.39
2022-08-26T17:03:44.626Z,41.55
2022-08-26T17:08:47.512Z,44.23
2022-08-26T17:13:49.852Z,44.71
2022-08-26T17:18:52.196Z,46.90
2022-08-26T17:23:55.046Z,48.48
2022-08-26T17:28:57.744Z,48.63
2022-08-26T17:34:00.481Z,53.31
2022-08-26T17:39:03.735Z,51.44
2022-08-26T17:44:06.528Z,53.20
2022-08-26T17:49:09.849Z,52.15
2022-08-26T17:54:12.335Z,50.15
2022-08-26T17:59:14.684Z,49.96
2022-08-26T18:04:17.487Z,49.71
2022-08-26T18:09:19.880Z,49.38
2022-08-26T18:14:22.213Z,49.00
2022-08-26T18:19:24.495Z,48.85
2022-08-26T18:24:30.155Z,49.19
2022-08-26T18:29:32.629Z,49.52
2022-08-26T18:34:35.737Z,49.64
2022-08-26T18:39:38.027Z,50.37
2022-08-26T18:44:40.337Z,52.15
2022-08-26T18:49:42.646Z,52.09
2022-08-26T18:54:44.951Z,51.81
2022-08-26T18:59:47.277Z,50.99
2022-08-26T19:04:51.709Z,54.27
2022-08-26T19:09:54.277Z,59.04
2022-08-26T19:14:56.775Z,60.78
2022-08-26T19:20:00.079Z,59.94
2022-08-26T19:25:02.478Z,59.36
2022-08-26T19:30:06.060Z,60.87
2022-08-26T19:35:08.923Z,60.45
2022-08-26T19:40:11.358Z,60.78
2022-08-26T19:45:24.281Z,60.22
2022-08-26T19:50:28.922Z,60.71
2022-08-26T19:55:31.286Z,60.86
2022-08-26T20:00:35.623Z,60.13
2022-08-26T20:05:39.033Z,61.36
2022-08-26T20:10:41.478Z,67.69
2022-08-26T20:15:46.045Z,63.66
2022-08-26T20:20:51.315Z,56.56
2022-08-26T20:25:57.307Z,56.18
2022-08-26T20:30:59.837Z,57.89
2022-08-26T20:36:02.934Z,59.03
2022-08-26T20:41:10.409Z,59.29
2022-08-26T20:46:18.770Z,59.87
2022-08-26T20:51:23.415Z,60.61
2022-08-26T20:56:25.769Z,60.39
2022-08-26T21:01:30.710Z,61.04
2022-08-26T21:06:33.870Z,61.64
2022-08-26T21:11:37.303Z,68.56
2022-08-26T21:16:40.303Z,67.98
2022-08-26T21:21:44.309Z,62.42
2022-08-26T21:26:47.148Z,58.38
2022-08-26T21:47:41.088Z,59.38
2022-08-26T21:52:43.725Z,58.97
2022-08-26T21:57:46.120Z,60.65
2022-08-26T22:02:50.089Z,61.53
2022-08-26T22:07:53.039Z,61.80
2022-08-26T22:12:55.884Z,63.97
2022-08-26T22:17:58.804Z,71.36
2022-08-26T22:23:01.949Z,64.39
2022-08-26T22:28:04.412Z,60.45
2022-08-26T22:33:06.773Z,56.80
2022-08-26T22:38:09.600Z,58.66
2022-08-26T22:43:12.835Z,59.86
2022-08-26T22:48:17.771Z,60.62
2022-08-26T22:53:20.131Z,61.39
2022-08-26T22:58:28.037Z,67.33
2022-08-26T23:03:33.717Z,66.81
2022-08-26T23:08:36.596Z,62.30
2022-08-26T23:13:39.206Z,59.24
2022-08-26T23:18:41.818Z,58.16
2022-08-26T23:23:45.008Z,60.64
2022-08-26T23:28:47.370Z,64.85
2022-08-26T23:34:08.449Z,63.13
2022-08-26T23:39:11.117Z,59.10
2022-08-26T23:44:13.516Z,58.16
2022-08-26T23:49:15.989Z,60.49
2022-08-26T23:54:19.551Z,61.80
2022-08-26T23:59:22.162Z,67.48
